sensor_id;sensor_type;location;lat;lon;timestamp;temperature;humidity
28460;DHT22;32528;45.712;9.192;2022-10-16T00:00:18;16.80;99.90
28460;DHT22;32528;45.712;9.192;2022-10-16T00:02:18;16.80;99.90
28460;DHT22;32528;45.712;9.192;2022-10-16T00:04:19;16.90;99.90
28460;DHT22;32528;45.712;9.192;2022-10-16T00:06:20;16.80;99.90
28460;DHT22;32528;45.712;9.192;2022-10-16T00:08:21;16.90;99.90
28460;DHT22;32528;45.712;9.192;2022-10-16T00:10:22;16.90;99.90
28460;DHT22;32528;45.712;9.192;2022-10-16T00:12:23;16.80;99.90
28460;DHT22;32528;45.712;9.192;2022-10-16T00:14:23;16.90;99.90
28460;DHT22;32528;45.712;9.192;2022-10-16T00:16:24;16.90;99.90
28460;DHT22;32528;45.712;9.192;2022-10-16T00:18:25;16.80;99.90
28460;DHT22;32528;45.712;9.192;2022-10-16T00:20:26;16.80;99.90
28460;DHT22;32528;45.712;9.192;2022-10-16T00:22:27;16.80;99.90
28460;DHT22;32528;45.712;9.192;2022-10-16T00:24:28;16.90;99.90
28460;DHT22;32528;45.712;9.192;2022-10-16T00:26:29;16.90;99.90
28460;DHT22;32528;45.712;9.192;2022-10-16T00:28:30;16.90;99.90
28460;DHT22;32528;45.712;9.192;2022-10-16T00:30:31;16.90;99.90
28460;DHT22;32528;45.712;9.192;2022-10-16T00:32:31;16.90;99.90
28460;DHT22;32528;45.712;9.192;2022-10-16T00:34:32;16.90;99.90
28460;DHT22;32528;45.712;9.192;2022-10-16T00:36:33;16.90;99.90
28460;DHT22;32528;45.712;9.192;2022-10-16T00:38:33;16.90;99.90
28460;DHT22;32528;45.712;9.192;2022-10-16T00:40:34;16.90;99.90
28460;DHT22;32528;45.712;9.192;2022-10-16T00:42:34;16.90;99.90
28460;DHT22;32528;45.712;9.192;2022-10-16T00:44:42;16.90;99.90
28460;DHT22;32528;45.712;9.192;2022-10-16T00:46:43;16.90;99.90
28460;DHT22;32528;45.712;9.192;2022-10-16T00:48:46;16.90;99.90
28460;DHT22;32528;45.712;9.192;2022-10-16T00:50:47;16.90;99.90
28460;DHT22;32528;45.712;9.192;2022-10-16T00:52:48;16.90;99.90
28460;DHT22;32528;45.712;9.192;2022-10-16T00:54:50;16.90;99.90
28460;DHT22;32528;45.712;9.192;2022-10-16T00:56:52;16.90;99.90
28460;DHT22;32528;45.712;9.192;2022-10-16T00:58:53;16.90;99.90
28460;DHT22;32528;45.712;9.192;2022-10-16T01:00:55;16.90;99.90
28460;DHT22;32528;45.712;9.192;2022-10-16T01:02:57;16.90;99.90
28460;DHT22;32528;45.712;9.192;2022-10-16T01:04:58;16.90;99.90
28460;DHT22;32528;45.712;9.192;2022-10-16T01:07:03;16.90;99.90
28460;DHT22;32528;45.712;9.192;2022-10-16T01:09:16;16.90;99.90
28460;DHT22;32528;45.712;9.192;2022-10-16T01:11:27;16.90;99.90
28460;DHT22;32528;45.712;9.192;2022-10-16T01:13:37;16.90;99.90
28460;DHT22;32528;45.712;9.192;2022-10-16T01:15:54;16.90;99.90
28460;DHT22;32528;45.712;9.192;2022-10-16T01:21:59;16.90;99.90
28460;DHT22;32528;45.712;9.192;2022-10-16T01:28:14;16.80;99.90
28460;DHT22;32528;45.712;9.192;2022-10-16T01:30:26;16.80;99.90
28460;DHT22;32528;45.712;9.192;2022-10-16T01:32:38;16.90;99.90
28460;DHT22;32528;45.712;9.192;2022-10-16T01:34:53;16.90;99.90
28460;DHT22;32528;45.712;9.192;2022-10-16T01:36:56;16.90;99.90
28460;DHT22;32528;45.712;9.192;2022-10-16T01:38:59;16.90;99.90
28460;DHT22;32528;45.712;9.192;2022-10-16T01:41:03;16.80;99.90
28460;DHT22;32528;45.712;9.192;2022-10-16T01:43:14;16.90;99.90
28460;DHT22;32528;45.712;9.192;2022-10-16T01:45:15;16.80;99.90
28460;DHT22;32528;45.712;9.192;2022-10-16T01:47:18;16.80;99.90
28460;DHT22;32528;45.712;9.192;2022-10-16T01:49:23;16.80;99.90
28460;DHT22;32528;45.712;9.192;2022-10-16T01:51:24;16.80;99.90
28460;DHT22;32528;45.712;9.192;2022-10-16T01:53:25;16.70;99.90
28460;DHT22;32528;45.712;9.192;2022-10-16T01:55:29;16.70;99.90
28460;DHT22;32528;45.712;9.192;2022-10-16T01:57:30;16.70;99.90
28460;DHT22;32528;45.712;9.192;2022-10-16T01:59:33;16.80;99.90
28460;DHT22;32528;45.712;9.192;2022-10-16T02:01:36;16.70;99.90
28460;DHT22;32528;45.712;9.192;2022-10-16T02:03:39;16.70;99.90
28460;DHT22;32528;45.712;9.192;2022-10-16T02:05:42;16.70;99.90
28460;DHT22;32528;45.712;9.192;2022-10-16T02:07:45;16.70;99.90
28460;DHT22;32528;45.712;9.192;2022-10-16T02:09:46;16.70;99.90
28460;DHT22;32528;45.712;9.192;2022-10-16T02:11:46;16.70;99.90
28460;DHT22;32528;45.712;9.192;2022-10-16T02:13:57;16.70;99.90
28460;DHT22;32528;45.712;9.192;2022-10-16T02:15:59;16.80;99.90
28460;DHT22;32528;45.712;9.192;2022-10-16T02:18:01;16.70;99.90
28460;DHT22;32528;45.712;9.192;2022-10-16T02:20:02;16.70;99.90
28460;DHT22;32528;45.712;9.192;2022-10-16T02:22:04;16.70;99.90
28460;DHT22;32528;45.712;9.192;2022-10-16T02:24:11;16.70;99.90
28460;DHT22;32528;45.712;9.192;2022-10-16T02:26:15;16.70;99.90
28460;DHT22;32528;45.712;9.192;2022-10-16T02:28:28;16.70;99.90
28460;DHT22;32528;45.712;9.192;2022-10-16T02:30:41;16.60;99.90
28460;DHT22;32528;45.712;9.192;2022-10-16T02:32:43;16.60;99.90
28460;DHT22;32528;45.712;9.192;2022-10-16T02:34:45;16.60;99.90
28460;DHT22;32528;45.712;9.192;2022-10-16T02:36:48;16.60;99.90
28460;DHT22;32528;45.712;9.192;2022-10-16T02:38:50;16.60;99.90
28460;DHT22;32528;45.712;9.192;2022-10-16T02:40:51;16.60;99.90
28460;DHT22;32528;45.712;9.192;2022-10-16T02:42:52;16.50;99.90
28460;DHT22;32528;45.712;9.192;2022-10-16T02:44:53;16.50;99.90
28460;DHT22;32528;45.712;9.192;2022-10-16T02:46:53;16.40;99.90
28460;DHT22;32528;45.712;9.192;2022-10-16T02:48:54;16.40;99.90
28460;DHT22;32528;45.712;9.192;2022-10-16T02:50:55;16.30;99.90
28460;DHT22;32528;45.712;9.192;2022-10-16T02:52:56;16.40;99.90
28460;DHT22;32528;45.712;9.192;2022-10-16T02:54:56;16.30;99.90
28460;DHT22;32528;45.712;9.192;2022-10-16T02:56:57;16.30;99.90
28460;DHT22;32528;45.712;9.192;2022-10-16T02:58:59;16.30;99.90
28460;DHT22;32528;45.712;9.192;2022-10-16T03:00:59;16.30;99.90
28460;DHT22;32528;45.712;9.192;2022-10-16T03:03:00;16.30;99.90
28460;DHT22;32528;45.712;9.192;2022-10-16T03:05:00;16.30;99.90
28460;DHT22;32528;45.712;9.192;2022-10-16T03:07:01;16.30;99.90
28460;DHT22;32528;45.712;9.192;2022-10-16T03:09:02;16.30;99.90
28460;DHT22;32528;45.712;9.192;2022-10-16T03:11:02;16.30;99.90
28460;DHT22;32528;45.712;9.192;2022-10-16T03:13:03;16.30;99.90
28460;DHT22;32528;45.712;9.192;2022-10-16T03:15:04;16.30;99.90
28460;DHT22;32528;45.712;9.192;2022-10-16T03:17:05;16.30;99.90
28460;DHT22;32528;45.712;9.192;2022-10-16T03:19:05;16.30;99.90
28460;DHT22;32528;45.712;9.192;2022-10-16T03:21:06;16.30;99.90
28460;DHT22;32528;45.712;9.192;2022-10-16T03:23:06;16.30;99.90
28460;DHT22;32528;45.712;9.192;2022-10-16T03:25:08;16.20;99.90
28460;DHT22;32528;45.712;9.192;2022-10-16T03:27:09;16.20;99.90
28460;DHT22;32528;45.712;9.192;2022-10-16T03:29:09;16.20;99.90
28460;DHT22;32528;45.712;9.192;2022-10-16T03:31:10;16.20;99.90
28460;DHT22;32528;45.712;9.192;2022-10-16T03:33:11;16.20;99.90
28460;DHT22;32528;45.712;9.192;2022-10-16T03:35:11;16.20;99.90
28460;DHT22;32528;45.712;9.192;2022-10-16T03:37:12;16.20;99.90
28460;DHT22;32528;45.712;9.192;2022-10-16T03:39:13;16.20;99.90
28460;DHT22;32528;45.712;9.192;2022-10-16T03:41:14;16.20;99.90
28460;DHT22;32528;45.712;9.192;2022-10-16T03:43:14;16.20;99.90
28460;DHT22;32528;45.712;9.192;2022-10-16T03:45:15;16.20;99.90
28460;DHT22;32528;45.712;9.192;2022-10-16T03:47:16;16.20;99.90
28460;DHT22;32528;45.712;9.192;2022-10-16T03:49:20;16.20;99.90
28460;DHT22;32528;45.712;9.192;2022-10-16T03:51:21;16.30;99.90
28460;DHT22;32528;45.712;9.192;2022-10-16T03:53:22;16.20;99.90
28460;DHT22;32528;45.712;9.192;2022-10-16T03:55:22;16.30;99.90
28460;DHT22;32528;45.712;9.192;2022-10-16T03:57:23;16.20;99.90
28460;DHT22;32528;45.712;9.192;2022-10-16T03:59:24;16.20;99.90
28460;DHT22;32528;45.712;9.192;2022-10-16T04:01:24;16.20;99.90
28460;DHT22;32528;45.712;9.192;2022-10-16T04:03:25;16.30;99.90
28460;DHT22;32528;45.712;9.192;2022-10-16T04:05:26;16.20;99.90
28460;DHT22;32528;45.712;9.192;2022-10-16T04:07:26;16.30;99.90
28460;DHT22;32528;45.712;9.192;2022-10-16T04:09:27;16.30;99.90
28460;DHT22;32528;45.712;9.192;2022-10-16T04:11:28;16.30;99.90
28460;DHT22;32528;45.712;9.192;2022-10-16T04:13:28;16.30;99.90
28460;DHT22;32528;45.712;9.192;2022-10-16T04:15:29;16.30;99.90
28460;DHT22;32528;45.712;9.192;2022-10-16T04:17:30;16.30;99.90
28460;DHT22;32528;45.712;9.192;2022-10-16T04:19:30;16.40;99.90
28460;DHT22;32528;45.712;9.192;2022-10-16T04:21:31;16.30;99.90
28460;DHT22;32528;45.712;9.192;2022-10-16T04:23:32;16.30;99.90
28460;DHT22;32528;45.712;9.192;2022-10-16T04:25:33;16.30;99.90
28460;DHT22;32528;45.712;9.192;2022-10-16T04:27:33;16.30;99.90
28460;DHT22;32528;45.712;9.192;2022-10-16T04:29:34;16.30;99.90
28460;DHT22;32528;45.712;9.192;2022-10-16T04:31:35;16.30;99.90
28460;DHT22;32528;45.712;9.192;2022-10-16T04:33:35;16.30;99.90
28460;DHT22;32528;45.712;9.192;2022-10-16T04:35:36;16.40;99.90
28460;DHT22;32528;45.712;9.192;2022-10-16T04:37:37;16.30;99.90
28460;DHT22;32528;45.712;9.192;2022-10-16T04:39:37;16.40;99.90
28460;DHT22;32528;45.712;9.192;2022-10-16T04:41:38;16.40;99.90
28460;DHT22;32528;45.712;9.192;2022-10-16T04:43:39;16.40;99.90
28460;DHT22;32528;45.712;9.192;2022-10-16T04:45:39;16.40;99.90
28460;DHT22;32528;45.712;9.192;2022-10-16T04:47:40;16.40;99.90
28460;DHT22;32528;45.712;9.192;2022-10-16T04:49:41;16.40;99.90
28460;DHT22;32528;45.712;9.192;2022-10-16T04:51:41;16.40;99.90
28460;DHT22;32528;45.712;9.192;2022-10-16T04:53:42;16.40;99.90
28460;DHT22;32528;45.712;9.192;2022-10-16T04:55:42;16.30;99.90
28460;DHT22;32528;45.712;9.192;2022-10-16T04:57:43;16.30;99.90
28460;DHT22;32528;45.712;9.192;2022-10-16T04:59:44;16.30;99.90
28460;DHT22;32528;45.712;9.192;2022-10-16T05:01:45;16.30;99.90
28460;DHT22;32528;45.712;9.192;2022-10-16T05:03:45;16.30;99.90
28460;DHT22;32528;45.712;9.192;2022-10-16T05:05:46;16.30;99.90
28460;DHT22;32528;45.712;9.192;2022-10-16T05:07:47;16.30;99.90
28460;DHT22;32528;45.712;9.192;2022-10-16T05:09:48;16.30;99.90
28460;DHT22;32528;45.712;9.192;2022-10-16T05:11:49;16.30;99.90
28460;DHT22;32528;45.712;9.192;2022-10-16T05:13:49;16.30;99.90
28460;DHT22;32528;45.712;9.192;2022-10-16T05:15:50;16.30;99.90
28460;DHT22;32528;45.712;9.192;2022-10-16T05:17:54;16.30;99.90
28460;DHT22;32528;45.712;9.192;2022-10-16T05:19:54;16.20;99.90
28460;DHT22;32528;45.712;9.192;2022-10-16T05:21:55;16.20;99.90
28460;DHT22;32528;45.712;9.192;2022-10-16T05:23:56;16.20;99.90
28460;DHT22;32528;45.712;9.192;2022-10-16T05:25:57;16.20;99.90
28460;DHT22;32528;45.712;9.192;2022-10-16T05:27:58;16.20;99.90
28460;DHT22;32528;45.712;9.192;2022-10-16T05:29:59;16.20;99.90
28460;DHT22;32528;45.712;9.192;2022-10-16T05:31:59;16.20;99.90
28460;DHT22;32528;45.712;9.192;2022-10-16T05:34:00;16.20;99.90
28460;DHT22;32528;45.712;9.192;2022-10-16T05:36:02;16.20;99.90
28460;DHT22;32528;45.712;9.192;2022-10-16T05:38:03;16.20;99.90
28460;DHT22;32528;45.712;9.192;2022-10-16T05:40:04;16.20;99.90
28460;DHT22;32528;45.712;9.192;2022-10-16T05:42:08;16.20;99.90
28460;DHT22;32528;45.712;9.192;2022-10-16T05:44:09;16.20;99.90
28460;DHT22;32528;45.712;9.192;2022-10-16T05:46:09;16.30;99.90
28460;DHT22;32528;45.712;9.192;2022-10-16T05:48:10;16.30;99.90
28460;DHT22;32528;45.712;9.192;2022-10-16T05:50:11;16.30;99.90
28460;DHT22;32528;45.712;9.192;2022-10-16T05:52:12;16.30;99.90
28460;DHT22;32528;45.712;9.192;2022-10-16T05:54:12;16.30;99.90
28460;DHT22;32528;45.712;9.192;2022-10-16T05:56:13;16.20;99.90
28460;DHT22;32528;45.712;9.192;2022-10-16T05:58:14;16.20;99.90
28460;DHT22;32528;45.712;9.192;2022-10-16T06:00:14;16.20;99.90
28460;DHT22;32528;45.712;9.192;2022-10-16T06:02:15;16.30;99.90
28460;DHT22;32528;45.712;9.192;2022-10-16T06:04:16;16.30;99.90
28460;DHT22;32528;45.712;9.192;2022-10-16T06:06:17;16.30;99.90
28460;DHT22;32528;45.712;9.192;2022-10-16T06:08:18;16.40;99.90
28460;DHT22;32528;45.712;9.192;2022-10-16T06:10:19;16.40;99.90
28460;DHT22;32528;45.712;9.192;2022-10-16T06:12:20;16.50;99.90
28460;DHT22;32528;45.712;9.192;2022-10-16T06:14:21;16.50;99.90
28460;DHT22;32528;45.712;9.192;2022-10-16T06:16:22;16.50;99.90
28460;DHT22;32528;45.712;9.192;2022-10-16T06:18:23;16.50;99.90
28460;DHT22;32528;45.712;9.192;2022-10-16T06:20:23;16.60;99.90
28460;DHT22;32528;45.712;9.192;2022-10-16T06:22:24;16.60;99.90
28460;DHT22;32528;45.712;9.192;2022-10-16T06:24:25;16.70;99.90
28460;DHT22;32528;45.712;9.192;2022-10-16T06:26:26;16.70;99.90
28460;DHT22;32528;45.712;9.192;2022-10-16T06:28:27;16.70;99.90
28460;DHT22;32528;45.712;9.192;2022-10-16T06:30:28;16.80;99.90
28460;DHT22;32528;45.712;9.192;2022-10-16T06:32:28;16.80;99.90
28460;DHT22;32528;45.712;9.192;2022-10-16T06:34:29;16.80;99.90
28460;DHT22;32528;45.712;9.192;2022-10-16T06:36:29;16.90;99.90
28460;DHT22;32528;45.712;9.192;2022-10-16T06:38:30;16.90;99.90
28460;DHT22;32528;45.712;9.192;2022-10-16T06:40:31;16.90;99.90
28460;DHT22;32528;45.712;9.192;2022-10-16T06:42:31;16.90;99.90
28460;DHT22;32528;45.712;9.192;2022-10-16T06:44:33;17.00;99.90
28460;DHT22;32528;45.712;9.192;2022-10-16T06:46:34;17.00;99.90
28460;DHT22;32528;45.712;9.192;2022-10-16T06:48:35;17.00;99.90
28460;DHT22;32528;45.712;9.192;2022-10-16T06:50:35;17.00;99.90
28460;DHT22;32528;45.712;9.192;2022-10-16T06:52:36;17.10;99.90
28460;DHT22;32528;45.712;9.192;2022-10-16T06:54:37;17.10;99.90
28460;DHT22;32528;45.712;9.192;2022-10-16T06:56:37;17.20;99.90
28460;DHT22;32528;45.712;9.192;2022-10-16T06:58:38;17.20;99.90
28460;DHT22;32528;45.712;9.192;2022-10-16T07:00:39;17.30;99.90
28460;DHT22;32528;45.712;9.192;2022-10-16T07:02:39;17.40;99.90
28460;DHT22;32528;45.712;9.192;2022-10-16T07:04:40;17.40;99.90
28460;DHT22;32528;45.712;9.192;2022-10-16T07:06:41;17.50;99.90
28460;DHT22;32528;45.712;9.192;2022-10-16T07:08:42;17.50;99.90
28460;DHT22;32528;45.712;9.192;2022-10-16T07:10:43;17.50;99.90
28460;DHT22;32528;45.712;9.192;2022-10-16T07:12:43;17.60;99.90
28460;DHT22;32528;45.712;9.192;2022-10-16T07:14:45;17.60;99.90
28460;DHT22;32528;45.712;9.192;2022-10-16T07:16:46;17.70;99.90
28460;DHT22;32528;45.712;9.192;2022-10-16T07:18:47;17.70;99.90
28460;DHT22;32528;45.712;9.192;2022-10-16T07:20:49;17.80;99.90
28460;DHT22;32528;45.712;9.192;2022-10-16T07:22:50;17.80;99.90
28460;DHT22;32528;45.712;9.192;2022-10-16T07:24:51;18.00;99.90
28460;DHT22;32528;45.712;9.192;2022-10-16T07:26:52;18.00;99.90
28460;DHT22;32528;45.712;9.192;2022-10-16T07:28:53;18.10;99.90
28460;DHT22;32528;45.712;9.192;2022-10-16T07:30:54;18.20;99.90
28460;DHT22;32528;45.712;9.192;2022-10-16T07:32:55;18.30;99.90
28460;DHT22;32528;45.712;9.192;2022-10-16T07:34:55;18.30;99.90
28460;DHT22;32528;45.712;9.192;2022-10-16T07:36:56;18.40;99.90
28460;DHT22;32528;45.712;9.192;2022-10-16T07:38:57;18.40;99.90
28460;DHT22;32528;45.712;9.192;2022-10-16T07:40:58;18.50;99.90
28460;DHT22;32528;45.712;9.192;2022-10-16T07:42:59;18.60;99.90
28460;DHT22;32528;45.712;9.192;2022-10-16T07:45:02;18.70;99.90
28460;DHT22;32528;45.712;9.192;2022-10-16T07:47:03;18.70;99.90
28460;DHT22;32528;45.712;9.192;2022-10-16T07:49:04;18.80;99.90
28460;DHT22;32528;45.712;9.192;2022-10-16T07:51:05;18.90;99.90
28460;DHT22;32528;45.712;9.192;2022-10-16T07:53:07;19.00;99.90
28460;DHT22;32528;45.712;9.192;2022-10-16T07:55:07;19.10;99.90
28460;DHT22;32528;45.712;9.192;2022-10-16T07:57:08;19.20;99.90
28460;DHT22;32528;45.712;9.192;2022-10-16T07:59:09;19.20;99.90
28460;DHT22;32528;45.712;9.192;2022-10-16T08:01:10;19.30;99.90
28460;DHT22;32528;45.712;9.192;2022-10-16T08:03:11;19.30;99.90
28460;DHT22;32528;45.712;9.192;2022-10-16T08:05:12;19.40;99.90
28460;DHT22;32528;45.712;9.192;2022-10-16T08:07:12;19.50;99.90
28460;DHT22;32528;45.712;9.192;2022-10-16T08:09:13;19.60;99.30
28460;DHT22;32528;45.712;9.192;2022-10-16T08:11:14;19.60;99.60
28460;DHT22;32528;45.712;9.192;2022-10-16T08:13:15;19.70;99.40
28460;DHT22;32528;45.712;9.192;2022-10-16T08:15:16;19.70;98.90
28460;DHT22;32528;45.712;9.192;2022-10-16T08:17:16;19.80;98.70
28460;DHT22;32528;45.712;9.192;2022-10-16T08:19:17;19.80;98.40
28460;DHT22;32528;45.712;9.192;2022-10-16T08:21:19;19.90;98.10
28460;DHT22;32528;45.712;9.192;2022-10-16T08:23:20;19.90;98.10
28460;DHT22;32528;45.712;9.192;2022-10-16T08:25:21;19.90;98.10
28460;DHT22;32528;45.712;9.192;2022-10-16T08:27:22;19.90;98.10
28460;DHT22;32528;45.712;9.192;2022-10-16T08:29:22;20.00;97.90
28460;DHT22;32528;45.712;9.192;2022-10-16T08:31:23;20.10;97.60
28460;DHT22;32528;45.712;9.192;2022-10-16T08:33:25;20.20;97.20
28460;DHT22;32528;45.712;9.192;2022-10-16T08:35:26;20.30;98.10
28460;DHT22;32528;45.712;9.192;2022-10-16T08:37:29;20.40;97.30
28460;DHT22;32528;45.712;9.192;2022-10-16T08:39:31;20.60;97.50
28460;DHT22;32528;45.712;9.192;2022-10-16T08:41:40;20.60;97.60
28460;DHT22;32528;45.712;9.192;2022-10-16T08:50:28;21.00;95.90
28460;DHT22;32528;45.712;9.192;2022-10-16T08:52:31;21.10;95.50
28460;DHT22;32528;45.712;9.192;2022-10-16T08:54:34;21.10;94.20
28460;DHT22;32528;45.712;9.192;2022-10-16T08:56:37;21.00;94.20
28460;DHT22;32528;45.712;9.192;2022-10-16T08:58:38;21.00;94.40
28460;DHT22;32528;45.712;9.192;2022-10-16T09:00:39;20.90;94.70
28460;DHT22;32528;45.712;9.192;2022-10-16T09:05:02;21.00;95.30
28460;DHT22;32528;45.712;9.192;2022-10-16T09:07:28;21.00;94.90
28460;DHT22;32528;45.712;9.192;2022-10-16T09:18:26;21.40;93.70
28460;DHT22;32528;45.712;9.192;2022-10-16T09:20:36;21.60;93.00
28460;DHT22;32528;45.712;9.192;2022-10-16T09:22:38;21.70;92.70
28460;DHT22;32528;45.712;9.192;2022-10-16T09:24:40;21.90;92.80
28460;DHT22;32528;45.712;9.192;2022-10-16T09:26:41;22.00;92.90
28460;DHT22;32528;45.712;9.192;2022-10-16T09:28:42;22.10;93.40
28460;DHT22;32528;45.712;9.192;2022-10-16T09:30:43;22.20;92.50
28460;DHT22;32528;45.712;9.192;2022-10-16T09:32:44;22.30;92.60
28460;DHT22;32528;45.712;9.192;2022-10-16T09:34:52;22.30;92.20
28460;DHT22;32528;45.712;9.192;2022-10-16T09:36:54;22.20;91.60
28460;DHT22;32528;45.712;9.192;2022-10-16T09:39:06;22.10;92.30
28460;DHT22;32528;45.712;9.192;2022-10-16T09:41:19;22.00;92.50
28460;DHT22;32528;45.712;9.192;2022-10-16T09:45:22;21.90;92.50
28460;DHT22;32528;45.712;9.192;2022-10-16T09:47:24;22.00;91.70
28460;DHT22;32528;45.712;9.192;2022-10-16T09:49:26;22.10;92.20
28460;DHT22;32528;45.712;9.192;2022-10-16T09:51:34;22.20;92.00
28460;DHT22;32528;45.712;9.192;2022-10-16T09:53:45;22.30;92.00
28460;DHT22;32528;45.712;9.192;2022-10-16T09:55:50;22.30;91.50
28460;DHT22;32528;45.712;9.192;2022-10-16T09:57:51;22.30;91.30
28460;DHT22;32528;45.712;9.192;2022-10-16T09:59:56;22.40;91.60
28460;DHT22;32528;45.712;9.192;2022-10-16T10:02:00;22.50;91.70
28460;DHT22;32528;45.712;9.192;2022-10-16T10:04:03;22.40;91.70
28460;DHT22;32528;45.712;9.192;2022-10-16T10:06:18;22.50;91.60
28460;DHT22;32528;45.712;9.192;2022-10-16T10:08:19;22.50;91.60
28460;DHT22;32528;45.712;9.192;2022-10-16T10:10:22;22.50;91.90
28460;DHT22;32528;45.712;9.192;2022-10-16T10:12:27;22.60;91.80
28460;DHT22;32528;45.712;9.192;2022-10-16T10:14:38;22.60;91.60
28460;DHT22;32528;45.712;9.192;2022-10-16T10:16:40;22.60;91.60
28460;DHT22;32528;45.712;9.192;2022-10-16T10:18:40;22.60;91.40
28460;DHT22;32528;45.712;9.192;2022-10-16T10:20:41;22.50;91.30
28460;DHT22;32528;45.712;9.192;2022-10-16T10:22:43;22.50;91.40
28460;DHT22;32528;45.712;9.192;2022-10-16T10:24:56;22.60;91.30
28460;DHT22;32528;45.712;9.192;2022-10-16T10:27:01;22.50;91.70
28460;DHT22;32528;45.712;9.192;2022-10-16T10:35:56;22.40;91.60
28460;DHT22;32528;45.712;9.192;2022-10-16T10:38:03;22.40;91.90
28460;DHT22;32528;45.712;9.192;2022-10-16T10:42:35;22.20;92.10
28460;DHT22;32528;45.712;9.192;2022-10-16T10:49:30;22.70;91.70
28460;DHT22;32528;45.712;9.192;2022-10-16T11:02:37;22.40;91.30
28460;DHT22;32528;45.712;9.192;2022-10-16T11:07:01;22.40;92.10
28460;DHT22;32528;45.712;9.192;2022-10-16T11:09:12;22.50;91.40
28460;DHT22;32528;45.712;9.192;2022-10-16T11:13:39;22.60;91.40
28460;DHT22;32528;45.712;9.192;2022-10-16T11:15:41;22.70;91.10
28460;DHT22;32528;45.712;9.192;2022-10-16T11:26:17;22.60;90.40
28460;DHT22;32528;45.712;9.192;2022-10-16T11:34:47;22.90;91.40
28460;DHT22;32528;45.712;9.192;2022-10-16T11:36:55;23.20;91.70
28460;DHT22;32528;45.712;9.192;2022-10-16T11:41:02;23.40;91.10
28460;DHT22;32528;45.712;9.192;2022-10-16T11:43:06;23.40;90.50
28460;DHT22;32528;45.712;9.192;2022-10-16T11:49:21;23.50;91.00
28460;DHT22;32528;45.712;9.192;2022-10-16T11:53:34;23.40;90.50
28460;DHT22;32528;45.712;9.192;2022-10-16T11:55:41;23.30;90.60
28460;DHT22;32528;45.712;9.192;2022-10-16T11:57:43;23.60;90.70
28460;DHT22;32528;45.712;9.192;2022-10-16T12:01:54;23.60;90.90
28460;DHT22;32528;45.712;9.192;2022-10-16T12:04:19;23.70;90.40
28460;DHT22;32528;45.712;9.192;2022-10-16T12:08:25;23.60;89.90
28460;DHT22;32528;45.712;9.192;2022-10-16T12:10:28;23.40;90.60
28460;DHT22;32528;45.712;9.192;2022-10-16T12:14:36;23.30;90.00
28460;DHT22;32528;45.712;9.192;2022-10-16T12:16:56;23.30;90.00
28460;DHT22;32528;45.712;9.192;2022-10-16T12:21:10;23.60;90.70
28460;DHT22;32528;45.712;9.192;2022-10-16T12:23:19;23.60;88.40
28460;DHT22;32528;45.712;9.192;2022-10-16T12:25:21;23.70;89.20
28460;DHT22;32528;45.712;9.192;2022-10-16T12:27:24;23.90;89.90
28460;DHT22;32528;45.712;9.192;2022-10-16T12:29:37;23.90;90.30
28460;DHT22;32528;45.712;9.192;2022-10-16T12:31:39;23.80;90.00
28460;DHT22;32528;45.712;9.192;2022-10-16T12:34:00;23.60;89.90
28460;DHT22;32528;45.712;9.192;2022-10-16T12:36:05;23.60;90.00
28460;DHT22;32528;45.712;9.192;2022-10-16T12:38:17;23.60;89.30
28460;DHT22;32528;45.712;9.192;2022-10-16T12:44:25;23.70;89.90
28460;DHT22;32528;45.712;9.192;2022-10-16T12:46:37;23.80;89.30
28460;DHT22;32528;45.712;9.192;2022-10-16T12:48:38;23.80;88.30
28460;DHT22;32528;45.712;9.192;2022-10-16T12:50:39;23.80;89.30
28460;DHT22;32528;45.712;9.192;2022-10-16T12:52:41;23.70;89.50
28460;DHT22;32528;45.712;9.192;2022-10-16T12:54:44;23.50;88.50
28460;DHT22;32528;45.712;9.192;2022-10-16T13:05:57;23.70;90.00
28460;DHT22;32528;45.712;9.192;2022-10-16T13:10:26;23.60;89.50
28460;DHT22;32528;45.712;9.192;2022-10-16T13:12:46;23.80;89.60
28460;DHT22;32528;45.712;9.192;2022-10-16T13:14:56;23.90;88.80
28460;DHT22;32528;45.712;9.192;2022-10-16T13:22:23;24.20;88.60
28460;DHT22;32528;45.712;9.192;2022-10-16T13:28:15;24.10;87.70
28460;DHT22;32528;45.712;9.192;2022-10-16T13:30:19;24.00;87.40
28460;DHT22;32528;45.712;9.192;2022-10-16T13:32:21;24.10;86.60
28460;DHT22;32528;45.712;9.192;2022-10-16T13:34:22;24.20;87.40
28460;DHT22;32528;45.712;9.192;2022-10-16T13:36:26;24.20;86.90
28460;DHT22;32528;45.712;9.192;2022-10-16T13:38:30;24.20;87.60
28460;DHT22;32528;45.712;9.192;2022-10-16T13:40:32;24.20;86.40
28460;DHT22;32528;45.712;9.192;2022-10-16T13:42:34;24.20;86.60
28460;DHT22;32528;45.712;9.192;2022-10-16T13:44:37;24.20;86.90
28460;DHT22;32528;45.712;9.192;2022-10-16T13:46:40;24.20;87.60
28460;DHT22;32528;45.712;9.192;2022-10-16T13:48:40;24.30;87.50
28460;DHT22;32528;45.712;9.192;2022-10-16T13:50:42;24.20;87.30
28460;DHT22;32528;45.712;9.192;2022-10-16T13:52:42;24.30;86.10
28460;DHT22;32528;45.712;9.192;2022-10-16T13:54:43;24.30;87.40
28460;DHT22;32528;45.712;9.192;2022-10-16T13:56:44;24.30;86.80
28460;DHT22;32528;45.712;9.192;2022-10-16T13:58:44;24.40;86.90
28460;DHT22;32528;45.712;9.192;2022-10-16T14:00:56;24.30;86.60
28460;DHT22;32528;45.712;9.192;2022-10-16T14:02:58;24.30;87.10
28460;DHT22;32528;45.712;9.192;2022-10-16T14:05:01;24.40;86.50
28460;DHT22;32528;45.712;9.192;2022-10-16T14:07:02;24.40;86.50
28460;DHT22;32528;45.712;9.192;2022-10-16T14:09:07;24.40;86.70
28460;DHT22;32528;45.712;9.192;2022-10-16T14:11:08;24.30;85.90
28460;DHT22;32528;45.712;9.192;2022-10-16T14:13:12;24.40;85.70
28460;DHT22;32528;45.712;9.192;2022-10-16T14:15:15;24.30;85.60
28460;DHT22;32528;45.712;9.192;2022-10-16T14:17:18;24.30;86.20
28460;DHT22;32528;45.712;9.192;2022-10-16T14:21:20;24.30;85.80
28460;DHT22;32528;45.712;9.192;2022-10-16T14:23:31;24.40;85.20
28460;DHT22;32528;45.712;9.192;2022-10-16T14:25:34;24.30;85.90
28460;DHT22;32528;45.712;9.192;2022-10-16T14:27:35;24.30;86.10
28460;DHT22;32528;45.712;9.192;2022-10-16T14:29:37;24.30;86.20
28460;DHT22;32528;45.712;9.192;2022-10-16T14:31:37;24.30;85.20
28460;DHT22;32528;45.712;9.192;2022-10-16T14:33:40;24.40;86.40
28460;DHT22;32528;45.712;9.192;2022-10-16T14:35:40;24.30;86.00
28460;DHT22;32528;45.712;9.192;2022-10-16T14:37:41;24.40;85.50
28460;DHT22;32528;45.712;9.192;2022-10-16T14:39:41;24.40;85.60
28460;DHT22;32528;45.712;9.192;2022-10-16T14:41:46;24.40;85.40
28460;DHT22;32528;45.712;9.192;2022-10-16T14:43:49;24.30;84.50
28460;DHT22;32528;45.712;9.192;2022-10-16T14:45:55;24.40;84.30
28460;DHT22;32528;45.712;9.192;2022-10-16T14:48:00;24.40;84.30
28460;DHT22;32528;45.712;9.192;2022-10-16T14:50:01;24.30;84.60